createdAt,value
2023-03-26T00:00:45.776Z,8.60
2023-03-26T00:01:49.803Z,8.70
2023-03-26T00:02:52.371Z,8.60
2023-03-26T00:03:55.087Z,8.70
2023-03-26T00:04:57.027Z,8.70
2023-03-26T00:06:10.204Z,8.70
2023-03-26T00:07:12.661Z,8.70
2023-03-26T00:08:16.184Z,8.70
2023-03-26T00:09:18.664Z,8.70
2023-03-26T00:10:20.933Z,8.70
2023-03-26T00:11:24.238Z,8.70
2023-03-26T00:12:26.543Z,8.70
2023-03-26T00:13:29.966Z,8.70
2023-03-26T00:14:32.770Z,8.70
2023-03-26T00:15:36.512Z,8.70
2023-03-26T00:16:38.599Z,8.70
2023-03-26T00:17:40.554Z,8.70
2023-03-26T00:18:43.745Z,8.70
2023-03-26T00:19:47.217Z,8.60
2023-03-26T00:20:49.007Z,8.60
2023-03-26T00:21:51.630Z,8.60
2023-03-26T00:22:55.189Z,8.60
2023-03-26T00:24:04.535Z,8.60
2023-03-26T00:25:07.399Z,8.60
2023-03-26T00:26:10.771Z,8.70
2023-03-26T00:27:12.626Z,8.70
2023-03-26T00:28:17.168Z,8.70
2023-03-26T00:29:18.945Z,8.60
2023-03-26T00:30:21.076Z,8.70
2023-03-26T00:31:24.060Z,8.70
2023-03-26T00:32:28.185Z,8.70
2023-03-26T00:33:31.927Z,8.70
2023-03-26T00:34:34.511Z,8.80
2023-03-26T00:35:40.104Z,8.80
2023-03-26T00:36:42.425Z,8.80
2023-03-26T00:37:46.148Z,8.90
2023-03-26T00:38:48.717Z,8.90
2023-03-26T00:39:50.962Z,8.90
2023-03-26T00:40:53.820Z,8.90
2023-03-26T00:41:56.005Z,8.90
2023-03-26T00:42:57.824Z,8.90
2023-03-26T00:44:00.395Z,8.90
2023-03-26T00:45:02.335Z,9.00
2023-03-26T00:46:06.300Z,9.00
2023-03-26T00:47:08.241Z,9.00
2023-03-26T00:48:10.314Z,9.00
2023-03-26T00:49:14.862Z,9.00
2023-03-26T00:50:17.219Z,9.00
2023-03-26T00:51:20.764Z,9.00
2023-03-26T00:52:23.377Z,9.00
2023-03-26T00:53:25.314Z,9.00
2023-03-26T00:54:27.100Z,9.00
2023-03-26T00:55:29.042Z,9.00
2023-03-26T00:56:31.526Z,9.00
2023-03-26T00:57:35.918Z,9.00
2023-03-26T00:58:38.863Z,9.00
2023-03-26T00:59:42.656Z,9.00
2023-03-26T01:00:57.569Z,9.00
2023-03-26T01:02:01.379Z,9.00
2023-03-26T01:03:05.573Z,8.90
2023-03-26T01:04:24.180Z,9.00
2023-03-26T01:05:35.046Z,9.00
2023-03-26T01:06:42.253Z,8.90
2023-03-26T01:07:44.791Z,8.90
2023-03-26T01:08:52.914Z,8.90
2023-03-26T01:09:57.997Z,9.00
2023-03-26T01:11:14.358Z,8.90
2023-03-26T01:12:24.094Z,8.90
2023-03-26T01:13:26.200Z,8.90
2023-03-26T01:14:31.327Z,8.90
2023-03-26T01:15:37.405Z,8.90
2023-03-26T01:16:46.101Z,8.90
2023-03-26T01:17:52.059Z,8.90
2023-03-26T01:18:54.718Z,8.90
2023-03-26T01:20:26.920Z,8.90
2023-03-26T01:21:30.670Z,8.90
2023-03-26T01:22:36.776Z,8.80
2023-03-26T01:24:01.805Z,8.80
2023-03-26T01:25:03.982Z,8.80
2023-03-26T01:26:20.006Z,8.80
2023-03-26T01:27:31.993Z,8.80
2023-03-26T01:28:36.296Z,8.80
2023-03-26T01:30:07.582Z,8.70
2023-03-26T01:31:37.013Z,8.80
2023-03-26T01:33:07.184Z,8.70
2023-03-26T01:34:22.233Z,8.70
2023-03-26T01:35:42.267Z,8.70
2023-03-26T01:37:15.782Z,8.70
2023-03-26T01:38:46.787Z,8.70
2023-03-26T01:39:57.138Z,8.70
2023-03-26T01:41:08.191Z,8.60
2023-03-26T01:42:15.596Z,8.60
2023-03-26T01:43:38.641Z,8.60
2023-03-26T01:44:55.379Z,8.60
2023-03-26T01:46:01.898Z,8.60
2023-03-26T01:47:05.295Z,8.60
2023-03-26T01:48:07.745Z,8.60
2023-03-26T01:49:13.395Z,8.60
2023-03-26T01:50:15.736Z,8.60
2023-03-26T01:51:35.641Z,8.70
2023-03-26T01:52:38.587Z,8.70
2023-03-26T01:53:46.113Z,8.70
2023-03-26T01:54:48.512Z,8.70
2023-03-26T01:56:18.340Z,8.70
2023-03-26T01:57:55.513Z,8.70
2023-03-26T01:59:20.050Z,8.80
2023-03-26T02:00:30.365Z,8.80
2023-03-26T02:01:46.424Z,8.80
2023-03-26T02:03:19.340Z,8.70
2023-03-26T02:04:24.350Z,8.70
2023-03-26T02:05:44.049Z,8.80
2023-03-26T02:07:05.764Z,8.80
2023-03-26T02:08:35.545Z,8.80
2023-03-26T02:09:47.622Z,8.80
2023-03-26T02:10:57.728Z,8.80
2023-03-26T02:12:03.652Z,8.80
2023-03-26T02:13:06.151Z,8.80
2023-03-26T02:14:09.419Z,8.90
2023-03-26T02:15:12.621Z,8.90
2023-03-26T02:16:18.743Z,8.90
2023-03-26T02:17:24.456Z,8.90
2023-03-26T02:18:36.439Z,8.90
2023-03-26T02:19:42.383Z,8.90
2023-03-26T02:20:45.042Z,9.00
2023-03-26T02:21:49.469Z,9.00
2023-03-26T02:22:51.676Z,9.00
2023-03-26T02:24:03.764Z,9.00
2023-03-26T02:25:10.921Z,9.00
2023-03-26T02:26:15.417Z,9.00
2023-03-26T02:27:43.676Z,9.00
2023-03-26T02:28:47.170Z,9.00
2023-03-26T02:29:50.502Z,9.10
2023-03-26T02:30:57.736Z,9.10
2023-03-26T02:31:59.781Z,9.10
2023-03-26T02:33:01.788Z,9.10
2023-03-26T02:34:12.904Z,9.10
2023-03-26T02:35:22.559Z,9.10
2023-03-26T02:36:30.297Z,9.10
2023-03-26T02:37:35.516Z,9.10
2023-03-26T02:38:46.772Z,9.10
2023-03-26T02:39:49.668Z,9.10
2023-03-26T02:41:04.789Z,9.10
2023-03-26T02:42:21.603Z,9.10
2023-03-26T02:43:24.858Z,9.10
2023-03-26T02:44:27.506Z,9.10
2023-03-26T02:45:52.865Z,9.10
2023-03-26T02:47:21.100Z,9.10
2023-03-26T02:48:44.037Z,9.10
2023-03-26T02:49:52.453Z,9.10
2023-03-26T02:51:14.813Z,9.10
2023-03-26T02:52:37.946Z,9.10
2023-03-26T02:53:41.258Z,9.10
2023-03-26T02:55:00.900Z,9.10
2023-03-26T02:56:03.784Z,9.10
2023-03-26T02:57:13.697Z,9.10
2023-03-26T02:58:18.370Z,9.10
2023-03-26T02:59:20.202Z,9.10
2023-03-26T03:00:30.610Z,9.10
2023-03-26T03:02:05.102Z,9.10
2023-03-26T03:03:10.016Z,9.10
2023-03-26T03:04:31.195Z,9.10
2023-03-26T03:05:33.516Z,9.10
2023-03-26T03:06:57.614Z,9.10
2023-03-26T03:08:00.403Z,9.10
2023-03-26T03:09:05.700Z,9.10
2023-03-26T03:10:10.745Z,9.10
2023-03-26T03:11:36.743Z,9.10
2023-03-26T03:12:42.966Z,9.10
2023-03-26T03:13:45.770Z,9.10
2023-03-26T03:14:51.364Z,9.10
2023-03-26T03:15:53.737Z,9.20
2023-03-26T03:16:56.205Z,9.20
2023-03-26T03:17:58.688Z,9.20
2023-03-26T03:19:03.681Z,9.20
2023-03-26T03:20:12.197Z,9.20
2023-03-26T03:21:14.552Z,9.20
2023-03-26T03:22:16.672Z,9.20
2023-03-26T03:23:21.284Z,9.20
2023-03-26T03:24:24.955Z,9.20
2023-03-26T03:25:26.808Z,9.20
2023-03-26T03:26:31.109Z,9.20
2023-03-26T03:27:39.334Z,9.20
2023-03-26T03:28:46.596Z,9.20
2023-03-26T03:29:53.756Z,9.20
2023-03-26T03:31:26.651Z,9.20
2023-03-26T03:32:33.003Z,9.20
2023-03-26T03:33:38.911Z,9.20
2023-03-26T03:34:42.458Z,9.20
2023-03-26T03:35:46.057Z,9.20
2023-03-26T03:36:48.636Z,9.20
2023-03-26T03:38:03.442Z,9.20
2023-03-26T03:39:13.518Z,9.20
2023-03-26T03:40:20.378Z,9.20
2023-03-26T03:41:22.328Z,9.20
2023-03-26T03:42:24.224Z,9.20
2023-03-26T03:43:28.849Z,9.20
2023-03-26T03:44:39.465Z,9.20
2023-03-26T03:45:49.761Z,9.20
2023-03-26T03:47:05.654Z,9.20
2023-03-26T03:48:07.433Z,9.20
2023-03-26T03:49:14.988Z,9.20
2023-03-26T03:50:17.668Z,9.20
2023-03-26T03:51:36.136Z,9.20
2023-03-26T03:52:41.055Z,9.20
2023-03-26T03:53:43.940Z,9.10
2023-03-26T03:54:46.559Z,9.20
2023-03-26T03:56:10.286Z,9.20
2023-03-26T03:57:52.656Z,9.20
2023-03-26T03:58:58.342Z,9.20
2023-03-26T04:00:09.485Z,9.20
2023-03-26T04:01:30.714Z,9.20
2023-03-26T04:02:54.610Z,9.20
2023-03-26T04:03:57.993Z,9.20
2023-03-26T04:05:11.687Z,9.20
2023-03-26T04:06:20.764Z,9.20
2023-03-26T04:07:28.548Z,9.20
2023-03-26T04:08:51.123Z,9.20
2023-03-26T04:09:53.454Z,9.10
2023-03-26T04:10:57.367Z,9.20
2023-03-26T04:12:19.957Z,9.10
2023-03-26T04:13:30.394Z,9.10
2023-03-26T04:14:59.736Z,9.10
2023-03-26T04:16:01.779Z,9.10
2023-03-26T04:17:05.479Z,9.10
2023-03-26T04:18:10.539Z,9.10
2023-03-26T04:19:18.109Z,9.10
2023-03-26T04:20:21.185Z,9.10
2023-03-26T04:21:26.332Z,9.10
2023-03-26T04:22:36.546Z,9.10
2023-03-26T04:23:42.500Z,9.10
2023-03-26T04:24:58.147Z,9.10
2023-03-26T04:26:24.118Z,9.10
2023-03-26T04:27:44.176Z,9.10
2023-03-26T04:29:06.283Z,9.10
2023-03-26T04:30:15.897Z,9.10
2023-03-26T04:31:24.164Z,9.10
2023-03-26T04:32:30.228Z,9.10
2023-03-26T04:33:34.849Z,9.20
2023-03-26T04:34:40.665Z,9.20
2023-03-26T04:35:48.498Z,9.20
2023-03-26T04:36:54.704Z,9.20
2023-03-26T04:38:06.592Z,9.20
2023-03-26T04:39:13.547Z,9.20
2023-03-26T04:40:35.025Z,9.20
2023-03-26T04:41:49.395Z,9.20
2023-03-26T04:42:54.706Z,9.20
2023-03-26T04:44:09.159Z,9.20
2023-03-26T04:45:22.699Z,9.20
2023-03-26T04:46:33.705Z,9.20
2023-03-26T04:47:54.616Z,9.20
2023-03-26T04:48:56.451Z,9.20
2023-03-26T04:49:58.825Z,9.20
2023-03-26T04:51:01.385Z,9.20
2023-03-26T04:52:03.239Z,9.20
2023-03-26T04:53:31.495Z,9.20
2023-03-26T04:54:49.495Z,9.20
2023-03-26T04:56:00.344Z,9.20
2023-03-26T04:57:39.359Z,9.20
2023-03-26T04:58:50.834Z,9.10
2023-03-26T04:59:53.776Z,9.10
2023-03-26T05:00:57.317Z,9.10
2023-03-26T05:02:00.252Z,9.10
2023-03-26T05:03:06.365Z,9.10
2023-03-26T05:04:08.733Z,9.10
2023-03-26T05:05:11.001Z,9.10
2023-03-26T05:06:14.964Z,9.00
2023-03-26T05:07:23.984Z,9.00
2023-03-26T05:08:31.156Z,9.00
2023-03-26T05:09:33.137Z,9.00
2023-03-26T05:10:50.963Z,9.00
2023-03-26T05:12:03.485Z,9.00
2023-03-26T05:13:13.329Z,9.00
2023-03-26T05:14:21.003Z,9.00
2023-03-26T05:15:24.155Z,9.00
2023-03-26T05:16:32.311Z,9.00
2023-03-26T05:17:41.794Z,9.00
2023-03-26T05:18:51.689Z,9.00
2023-03-26T05:19:53.696Z,9.00
2023-03-26T05:20:57.340Z,9.00
2023-03-26T05:21:59.709Z,9.00
2023-03-26T05:23:02.548Z,9.00
2023-03-26T05:24:08.036Z,9.10
2023-03-26T05:25:10.783Z,9.10
2023-03-26T05:26:15.716Z,9.10
2023-03-26T05:27:20.395Z,9.10
2023-03-26T05:28:24.722Z,9.10
2023-03-26T05:29:31.585Z,9.10
2023-03-26T05:30:33.374Z,9.10
2023-03-26T05:31:36.255Z,9.10
2023-03-26T05:32:38.803Z,9.10
2023-03-26T05:33:40.777Z,9.10
2023-03-26T05:34:45.819Z,9.10
2023-03-26T05:35:58.449Z,9.10
2023-03-26T05:37:00.562Z,9.10
2023-03-26T05:38:16.882Z,9.10
2023-03-26T05:39:18.879Z,9.10
2023-03-26T05:40:46.444Z,9.10
2023-03-26T05:41:53.025Z,9.00
2023-03-26T05:42:58.290Z,9.00
2023-03-26T05:44:25.988Z,9.00
2023-03-26T05:45:27.906Z,9.00
2023-03-26T05:46:30.998Z,8.90
2023-03-26T05:47:34.382Z,8.90
2023-03-26T05:48:38.048Z,8.90
2023-03-26T05:49:39.969Z,8.90
2023-03-26T05:50:41.779Z,8.90
2023-03-26T05:51:43.523Z,8.90
2023-03-26T05:53:10.120Z,8.90
2023-03-26T05:54:37.687Z,8.90
2023-03-26T05:55:58.459Z,8.90
2023-03-26T05:57:18.844Z,8.90
2023-03-26T05:58:56.795Z,8.90
2023-03-26T06:00:27.967Z,9.00
2023-03-26T06:01:32.168Z,9.00
2023-03-26T06:02:56.790Z,8.90
2023-03-26T06:04:18.970Z,9.00
2023-03-26T06:05:39.710Z,9.00
2023-03-26T06:06:52.781Z,9.00
2023-03-26T06:07:55.205Z,9.00
2023-03-26T06:09:02.312Z,8.90
2023-03-26T06:10:09.622Z,8.90
2023-03-26T06:11:12.676Z,8.90
2023-03-26T06:12:15.410Z,8.90
2023-03-26T06:13:18.969Z,8.80
2023-03-26T06:14:22.567Z,8.80
2023-03-26T06:15:42.432Z,8.80
2023-03-26T06:16:55.631Z,8.90
2023-03-26T06:17:57.697Z,8.80
2023-03-26T06:19:21.201Z,8.80
2023-03-26T06:20:46.363Z,8.80
2023-03-26T06:22:04.034Z,8.80
2023-03-26T06:23:25.252Z,8.80
2023-03-26T06:24:42.632Z,8.80
2023-03-26T06:26:10.498Z,8.80
2023-03-26T06:27:30.753Z,8.80
2023-03-26T06:29:01.889Z,8.80
2023-03-26T06:30:21.845Z,8.80
2023-03-26T06:31:43.507Z,8.80
2023-03-26T06:32:52.785Z,8.80
2023-03-26T06:33:59.347Z,8.80
2023-03-26T06:35:01.384Z,8.80
2023-03-26T06:36:03.894Z,8.70
2023-03-26T06:37:05.902Z,8.80
2023-03-26T06:38:08.249Z,8.80
2023-03-26T06:39:10.984Z,8.80
2023-03-26T06:40:20.928Z,8.80
2023-03-26T06:41:42.820Z,8.90
2023-03-26T06:43:08.302Z,8.90
2023-03-26T06:44:30.870Z,8.90
2023-03-26T06:45:56.016Z,9.00
2023-03-26T06:47:16.938Z,9.00
2023-03-26T06:48:38.176Z,9.00
2023-03-26T06:50:11.939Z,9.00
2023-03-26T06:51:37.950Z,9.00
2023-03-26T06:53:02.326Z,9.10
2023-03-26T06:54:17.117Z,9.10
2023-03-26T06:55:27.790Z,9.10
2023-03-26T06:56:43.028Z,9.10
2023-03-26T06:58:16.809Z,9.10
2023-03-26T06:59:41.683Z,9.00
2023-03-26T07:01:12.910Z,9.00
2023-03-26T07:02:33.322Z,9.00
2023-03-26T07:03:53.755Z,8.90
2023-03-26T07:05:14.975Z,8.90
2023-03-26T07:06:35.221Z,8.90
2023-03-26T07:07:55.409Z,8.90
2023-03-26T07:09:12.733Z,8.90
2023-03-26T07:10:33.763Z,9.00
2023-03-26T07:11:44.275Z,9.00
2023-03-26T07:13:01.167Z,9.00
2023-03-26T07:14:21.512Z,9.10
2023-03-26T07:15:52.677Z,9.10
2023-03-26T07:17:08.704Z,9.10
2023-03-26T07:18:24.892Z,9.20
2023-03-26T07:19:27.659Z,9.20
2023-03-26T07:20:30.246Z,9.20
2023-03-26T07:21:32.594Z,9.20
2023-03-26T07:22:35.809Z,9.20
2023-03-26T07:24:13.826Z,9.20
2023-03-26T07:25:45.096Z,9.30
2023-03-26T07:27:35.407Z,9.30
2023-03-26T07:29:04.029Z,9.40
2023-03-26T07:31:03.485Z,9.40
2023-03-26T07:32:30.299Z,9.40
2023-03-26T07:34:17.459Z,9.40
2023-03-26T07:35:41.722Z,9.30
2023-03-26T07:37:33.175Z,9.40
2023-03-26T07:39:16.590Z,9.40
2023-03-26T07:40:38.639Z,9.40
2023-03-26T07:42:11.700Z,9.40
2023-03-26T07:43:35.496Z,9.40
2023-03-26T07:44:51.226Z,9.40
2023-03-26T07:46:17.066Z,9.40
2023-03-26T07:47:33.851Z,9.40
2023-03-26T07:48:55.320Z,9.40
2023-03-26T07:50:32.542Z,9.40
2023-03-26T07:51:45.454Z,9.40
2023-03-26T07:53:21.874Z,9.40
2023-03-26T07:54:23.987Z,9.40
2023-03-26T07:55:52.345Z,9.50
2023-03-26T07:57:20.167Z,9.50
2023-03-26T07:58:53.980Z,9.50
2023-03-26T08:00:22.365Z,9.60
2023-03-26T08:01:50.949Z,9.60
2023-03-26T08:03:05.270Z,9.60
2023-03-26T08:05:10.624Z,9.60
2023-03-26T08:06:56.465Z,9.60
2023-03-26T08:08:45.806Z,9.70
2023-03-26T08:10:27.195Z,9.70
2023-03-26T08:11:36.681Z,9.70
2023-03-26T08:12:51.959Z,9.70
2023-03-26T08:13:56.982Z,9.80
2023-03-26T08:15:05.558Z,9.80
2023-03-26T08:16:38.775Z,9.80
2023-03-26T08:17:47.504Z,9.80
2023-03-26T08:19:06.442Z,9.80
2023-03-26T08:20:34.281Z,9.80
2023-03-26T08:21:48.026Z,9.80
2023-03-26T08:23:02.609Z,9.80
2023-03-26T08:24:36.934Z,9.80
2023-03-26T08:26:04.704Z,9.80
2023-03-26T08:27:34.607Z,9.80
2023-03-26T08:28:52.716Z,9.70
2023-03-26T08:30:17.671Z,9.70
2023-03-26T08:31:29.087Z,9.70
2023-03-26T08:32:31.710Z,9.70
2023-03-26T08:33:35.979Z,9.60
2023-03-26T08:34:39.763Z,9.60
2023-03-26T08:35:44.607Z,9.60
2023-03-26T08:36:46.794Z,9.60
2023-03-26T08:37:50.180Z,9.60
2023-03-26T08:38:52.491Z,9.60
2023-03-26T08:39:57.012Z,9.60
2023-03-26T08:41:19.096Z,9.60
2023-03-26T08:42:48.682Z,9.60
2023-03-26T08:44:09.722Z,9.60
2023-03-26T08:45:42.882Z,9.60
2023-03-26T08:47:32.839Z,9.60
2023-03-26T08:49:13.579Z,9.60
2023-03-26T08:50:54.600Z,9.60
2023-03-26T08:52:24.645Z,9.60
2023-03-26T08:53:38.488Z,9.60
2023-03-26T08:55:12.640Z,9.60
2023-03-26T08:56:30.761Z,9.70
2023-03-26T08:57:43.926Z,9.60
2023-03-26T08:59:23.084Z,9.60
2023-03-26T09:00:45.995Z,9.60
2023-03-26T09:02:03.468Z,9.60
2023-03-26T09:03:32.242Z,9.60
2023-03-26T09:04:58.856Z,9.60
2023-03-26T09:06:37.900Z,9.60
2023-03-26T09:08:30.038Z,9.60
2023-03-26T09:10:22.937Z,9.60
2023-03-26T09:11:52.535Z,9.60
2023-03-26T09:13:03.584Z,9.60
2023-03-26T09:14:39.415Z,9.60
2023-03-26T09:15:47.010Z,9.60
2023-03-26T09:17:03.421Z,9.60
2023-03-26T09:18:23.630Z,9.60
2023-03-26T09:20:22.042Z,9.60
2023-03-26T09:21:58.333Z,9.60
2023-03-26T09:23:06.215Z,9.60
2023-03-26T09:24:29.489Z,9.60
2023-03-26T09:25:43.038Z,9.50
2023-03-26T09:26:59.784Z,9.50
2023-03-26T09:28:37.815Z,9.40
2023-03-26T09:29:58.598Z,9.40
2023-03-26T09:31:25.444Z,9.30
2023-03-26T09:32:50.135Z,9.30
2023-03-26T09:34:26.501Z,9.20
2023-03-26T09:35:48.886Z,9.20
2023-03-26T09:37:14.122Z,9.10
2023-03-26T09:38:46.787Z,9.10
2023-03-26T09:40:19.729Z,9.10
2023-03-26T09:41:30.255Z,9.10
2023-03-26T09:42:46.713Z,9.00
2023-03-26T09:44:03.551Z,9.10
2023-03-26T09:45:23.705Z,9.10
2023-03-26T09:46:40.240Z,9.10
2023-03-26T09:48:12.067Z,9.10
2023-03-26T09:49:52.586Z,9.20
2023-03-26T09:51:04.036Z,9.20
2023-03-26T09:52:20.846Z,9.20
2023-03-26T09:54:01.879Z,9.30
2023-03-26T09:55:34.383Z,9.30
2023-03-26T09:57:09.335Z,9.30
2023-03-26T09:58:44.013Z,9.30
2023-03-26T10:00:00.426Z,9.30
2023-03-26T10:01:25.368Z,9.30
2023-03-26T10:02:58.117Z,9.30
2023-03-26T10:04:22.622Z,9.30
2023-03-26T10:05:44.831Z,9.30
2023-03-26T10:07:01.729Z,9.30
2023-03-26T10:08:49.973Z,9.30
2023-03-26T10:10:02.205Z,9.30
2023-03-26T10:11:24.037Z,9.40
2023-03-26T10:13:02.026Z,9.40
2023-03-26T10:14:35.507Z,9.40
2023-03-26T10:15:58.583Z,9.40
2023-03-26T10:17:28.832Z,9.40
2023-03-26T10:18:56.749Z,9.40
2023-03-26T10:20:49.213Z,9.40
2023-03-26T10:22:17.641Z,9.30
2023-03-26T10:23:43.552Z,9.30
2023-03-26T10:25:15.534Z,9.30
2023-03-26T10:26:36.826Z,9.30
2023-03-26T10:27:59.516Z,9.30
2023-03-26T10:29:51.102Z,9.40
2023-03-26T10:31:06.458Z,9.40
2023-03-26T10:32:45.810Z,9.40
2023-03-26T10:34:09.474Z,9.40
2023-03-26T10:36:07.629Z,9.50
2023-03-26T10:37:33.037Z,9.40
2023-03-26T10:39:36.259Z,9.40
2023-03-26T10:40:56.898Z,9.40
2023-03-26T10:42:21.198Z,9.40
2023-03-26T10:43:28.177Z,9.40
2023-03-26T10:44:51.209Z,9.40
2023-03-26T10:46:09.974Z,9.40
2023-03-26T10:47:53.074Z,9.40
2023-03-26T10:49:04.325Z,9.40
2023-03-26T10:50:27.819Z,9.40
2023-03-26T10:51:53.309Z,9.40
2023-03-26T10:52:56.877Z,9.40
2023-03-26T10:54:07.767Z,9.40
2023-03-26T10:55:40.168Z,9.40
2023-03-26T10:56:48.364Z,9.30
2023-03-26T10:57:57.657Z,9.30
2023-03-26T10:59:06.111Z,9.20
2023-03-26T11:00:25.793Z,9.20
2023-03-26T11:01:34.667Z,9.10
2023-03-26T11:03:09.235Z,9.00
2023-03-26T11:04:37.125Z,8.90
2023-03-26T11:05:54.905Z,8.80
2023-03-26T11:07:11.886Z,8.80
2023-03-26T11:08:37.725Z,8.80
2023-03-26T11:10:03.237Z,8.80
2023-03-26T11:11:19.347Z,8.80
2023-03-26T11:12:28.189Z,8.80
2023-03-26T11:13:54.382Z,8.80
2023-03-26T11:15:27.345Z,8.80
2023-03-26T11:16:53.929Z,8.80
2023-03-26T11:18:11.158Z,8.80
2023-03-26T11:19:37.063Z,8.80
2023-03-26T11:20:41.179Z,8.80
2023-03-26T11:22:11.523Z,8.80
2023-03-26T11:23:33.147Z,8.90
2023-03-26T11:24:52.880Z,8.90
2023-03-26T11:26:29.344Z,8.90
2023-03-26T11:27:40.841Z,8.90
2023-03-26T11:29:33.583Z,8.90
2023-03-26T11:31:07.513Z,8.90
2023-03-26T11:32:22.392Z,8.90
2023-03-26T11:33:36.654Z,8.90
2023-03-26T11:34:43.435Z,8.90
2023-03-26T11:35:55.314Z,8.90
2023-03-26T11:36:59.160Z,8.90
2023-03-26T11:38:32.813Z,8.90
2023-03-26T11:39:51.316Z,8.90
2023-03-26T11:40:55.892Z,8.90
2023-03-26T11:42:25.662Z,8.80
2023-03-26T11:43:36.971Z,8.80
2023-03-26T11:44:44.854Z,8.80
2023-03-26T11:45:50.951Z,8.80
2023-03-26T11:46:59.004Z,8.80
2023-03-26T11:48:08.204Z,8.80
2023-03-26T11:49:13.880Z,8.80
2023-03-26T11:50:26.367Z,8.80
2023-03-26T11:51:36.060Z,8.80
2023-03-26T11:52:38.443Z,8.70
2023-03-26T11:53:40.256Z,8.80
2023-03-26T11:54:43.488Z,8.70
2023-03-26T11:56:04.581Z,8.70
2023-03-26T11:57:15.435Z,8.80
2023-03-26T11:58:31.202Z,8.70
2023-03-26T11:59:45.273Z,8.70
2023-03-26T12:00:53.142Z,8.70
2023-03-26T12:02:00.595Z,8.80
2023-03-26T12:03:02.997Z,8.70
2023-03-26T12:04:15.679Z,8.70
2023-03-26T12:05:24.888Z,8.70
2023-03-26T12:06:28.932Z,8.70
2023-03-26T12:07:33.416Z,8.70
2023-03-26T12:08:39.587Z,8.70
2023-03-26T12:09:52.575Z,8.70
2023-03-26T12:11:09.299Z,8.70
2023-03-26T12:12:12.140Z,8.70
2023-03-26T12:13:43.075Z,8.70
2023-03-26T12:14:45.396Z,8.70
2023-03-26T12:15:48.231Z,8.70
2023-03-26T12:17:01.440Z,8.60
2023-03-26T12:18:25.026Z,8.70
2023-03-26T12:19:28.997Z,8.70
2023-03-26T12:20:36.695Z,8.70
2023-03-26T12:21:47.562Z,8.70
2023-03-26T12:22:49.533Z,8.70
2023-03-26T12:23:56.447Z,8.70
2023-03-26T12:25:18.773Z,8.70
2023-03-26T12:26:31.837Z,8.70
2023-03-26T12:27:33.664Z,8.70
2023-03-26T12:28:35.949Z,8.70
2023-03-26T12:29:38.316Z,8.70
2023-03-26T12:30:55.181Z,8.70
2023-03-26T12:32:03.270Z,8.70
2023-03-26T12:33:07.794Z,8.70
2023-03-26T12:34:19.478Z,8.70
2023-03-26T12:35:29.729Z,8.70
2023-03-26T12:36:35.911Z,8.70
2023-03-26T12:37:43.738Z,8.70
2023-03-26T12:38:46.305Z,8.70
2023-03-26T12:40:33.333Z,8.70
2023-03-26T12:44:48.305Z,8.80
2023-03-26T12:44:51.450Z,8.80
2023-03-26T12:44:59.389Z,8.80
2023-03-26T12:47:26.414Z,8.90
2023-03-26T12:47:58.147Z,8.90
2023-03-26T12:48:54.775Z,8.90
2023-03-26T12:49:58.053Z,9.00
2023-03-26T12:51:16.141Z,9.00
2023-03-26T12:52:38.403Z,9.10
2023-03-26T12:54:16.154Z,9.20
2023-03-26T12:55:49.403Z,9.20
2023-03-26T12:57:12.147Z,9.30
2023-03-26T12:58:51.197Z,9.30
2023-03-26T13:00:13.329Z,9.40
2023-03-26T13:01:21.360Z,9.50
2023-03-26T13:02:44.806Z,9.50
2023-03-26T13:04:04.729Z,9.60
2023-03-26T13:05:41.786Z,9.60
2023-03-26T13:07:00.561Z,9.70
2023-03-26T13:08:13.295Z,9.80
2023-03-26T13:09:35.724Z,9.90
2023-03-26T13:11:09.390Z,9.90
2023-03-26T13:12:35.575Z,9.90
2023-03-26T13:13:56.782Z,9.90
2023-03-26T13:15:59.882Z,9.90
2023-03-26T13:17:03.365Z,9.80
2023-03-26T13:18:21.536Z,9.80
2023-03-26T13:19:32.727Z,9.70
2023-03-26T13:20:46.504Z,9.70
2023-03-26T13:22:19.582Z,9.70
2023-03-26T13:23:28.617Z,9.70
2023-03-26T13:24:45.620Z,9.70
2023-03-26T13:26:00.632Z,9.70
2023-03-26T13:27:11.312Z,9.70
2023-03-26T13:28:32.071Z,9.70
2023-03-26T13:29:56.918Z,9.70
2023-03-26T13:31:04.834Z,9.70
2023-03-26T13:32:43.662Z,9.70
2023-03-26T13:33:59.119Z,9.70
2023-03-26T13:35:28.929Z,9.70
2023-03-26T13:36:51.277Z,9.60
2023-03-26T13:38:25.842Z,9.60
2023-03-26T13:39:51.413Z,9.60
2023-03-26T13:41:28.557Z,9.60
2023-03-26T13:42:48.986Z,9.60
2023-03-26T13:44:23.712Z,9.60
2023-03-26T13:45:29.881Z,9.60
2023-03-26T13:46:32.315Z,9.60
2023-03-26T13:47:38.467Z,9.60
2023-03-26T13:48:43.892Z,9.70
2023-03-26T13:49:58.591Z,9.70
2023-03-26T13:51:16.481Z,9.70
2023-03-26T13:52:37.929Z,9.70
2023-03-26T13:53:47.740Z,9.70
2023-03-26T13:54:58.228Z,9.70
2023-03-26T13:56:01.018Z,9.70
2023-03-26T13:57:14.727Z,9.70
2023-03-26T13:58:37.613Z,9.70
2023-03-26T13:59:48.599Z,9.70
2023-03-26T14:00:59.026Z,9.60
2023-03-26T14:02:24.689Z,9.70
2023-03-26T14:04:00.640Z,9.70
2023-03-26T14:05:33.255Z,9.70
2023-03-26T14:06:46.587Z,9.80
2023-03-26T14:08:27.312Z,9.80
2023-03-26T14:09:56.994Z,9.90
2023-03-26T14:11:38.121Z,9.90
2023-03-26T14:13:08.931Z,9.90
2023-03-26T14:14:16.780Z,10.00
2023-03-26T14:15:53.180Z,9.90
2023-03-26T14:17:04.808Z,10.00
2023-03-26T14:18:21.928Z,9.90
2023-03-26T14:19:36.437Z,9.90
2023-03-26T14:20:56.707Z,9.90
2023-03-26T14:22:24.063Z,9.80
2023-03-26T14:23:42.305Z,9.70
2023-03-26T14:25:11.464Z,9.70
2023-03-26T14:26:51.879Z,9.60
2023-03-26T14:28:29.477Z,9.60
2023-03-26T14:29:56.836Z,9.50
2023-03-26T14:31:28.916Z,9.50
2023-03-26T14:32:47.679Z,9.40
2023-03-26T14:33:52.607Z,9.30
2023-03-26T14:35:22.294Z,9.30
2023-03-26T14:36:49.402Z,9.30
2023-03-26T14:38:07.201Z,9.20
2023-03-26T14:39:24.312Z,9.20
2023-03-26T14:40:53.937Z,9.10
2023-03-26T14:42:08.311Z,9.10
2023-03-26T14:43:11.241Z,9.00
2023-03-26T14:44:30.872Z,9.00
2023-03-26T14:46:02.489Z,9.00
2023-03-26T14:47:23.762Z,9.00
2023-03-26T14:48:32.370Z,9.00
2023-03-26T14:50:15.774Z,8.90
2023-03-26T14:51:47.824Z,8.90
2023-03-26T14:52:52.871Z,8.90
2023-03-26T14:54:12.011Z,8.90
2023-03-26T14:55:49.416Z,8.90
2023-03-26T14:57:06.617Z,8.90
2023-03-26T14:58:47.181Z,8.90
2023-03-26T15:00:16.096Z,8.90
2023-03-26T15:01:29.227Z,8.90
2023-03-26T15:03:03.367Z,9.00
2023-03-26T15:04:32.494Z,8.90
2023-03-26T15:06:04.850Z,9.00
2023-03-26T15:07:31.607Z,9.00
2023-03-26T15:08:39.315Z,9.00
2023-03-26T15:10:02.559Z,9.00
2023-03-26T15:11:45.681Z,9.00
2023-03-26T15:13:19.858Z,9.00
2023-03-26T15:14:50.255Z,8.90
2023-03-26T15:16:30.482Z,8.90
2023-03-26T15:18:07.908Z,9.00
2023-03-26T15:19:49.409Z,9.00
2023-03-26T15:21:28.513Z,8.90
2023-03-26T15:22:54.967Z,8.90
2023-03-26T15:24:24.705Z,8.90
2023-03-26T15:25:45.742Z,8.80
2023-03-26T15:27:34.373Z,8.80
2023-03-26T15:28:39.782Z,8.80
2023-03-26T15:30:19.563Z,8.80
2023-03-26T15:31:58.635Z,8.70
2023-03-26T15:33:35.391Z,8.70
2023-03-26T15:35:02.781Z,8.70
2023-03-26T15:36:09.342Z,8.70
2023-03-26T15:37:54.875Z,8.70
2023-03-26T15:39:23.592Z,8.70
2023-03-26T15:40:28.302Z,8.70
2023-03-26T15:41:59.000Z,8.70
2023-03-26T15:43:14.169Z,8.70
2023-03-26T15:44:54.342Z,8.60
2023-03-26T15:46:26.307Z,8.60
2023-03-26T15:48:01.082Z,8.60
2023-03-26T15:49:11.900Z,8.60
2023-03-26T15:50:35.576Z,8.60
2023-03-26T15:52:13.005Z,8.50
2023-03-26T15:53:39.470Z,8.50
2023-03-26T15:55:11.735Z,8.50
2023-03-26T15:56:34.188Z,8.40
2023-03-26T15:57:57.117Z,8.40
2023-03-26T15:59:01.726Z,8.40
2023-03-26T16:00:23.432Z,8.40
2023-03-26T16:01:44.699Z,8.40
2023-03-26T16:03:10.396Z,8.40
2023-03-26T16:04:50.754Z,8.40
2023-03-26T16:06:30.848Z,8.40
2023-03-26T16:07:47.120Z,8.40
2023-03-26T16:09:07.931Z,8.40
2023-03-26T16:10:28.415Z,8.30
2023-03-26T16:11:43.203Z,8.30
2023-03-26T16:13:12.829Z,8.30
2023-03-26T16:14:37.985Z,8.30
2023-03-26T16:15:40.322Z,8.20
2023-03-26T16:16:57.485Z,8.20
2023-03-26T16:18:19.463Z,8.20
2023-03-26T16:19:21.910Z,8.10
2023-03-26T16:20:32.652Z,8.10
2023-03-26T16:21:43.375Z,8.10
2023-03-26T16:22:59.725Z,8.10
2023-03-26T16:24:08.068Z,8.00
2023-03-26T16:25:26.839Z,8.00
2023-03-26T16:26:43.769Z,8.00
2023-03-26T16:27:45.857Z,8.00
2023-03-26T16:28:50.692Z,8.00
2023-03-26T16:30:01.413Z,7.90
2023-03-26T16:31:36.425Z,7.90
2023-03-26T16:32:55.327Z,7.90
2023-03-26T16:34:01.916Z,7.90
2023-03-26T16:35:24.861Z,7.90
2023-03-26T16:36:38.948Z,7.90
2023-03-26T16:37:42.851Z,7.90
2023-03-26T16:39:13.536Z,7.90
2023-03-26T16:40:18.498Z,7.90
2023-03-26T16:41:26.678Z,7.90
2023-03-26T16:42:37.229Z,7.90
2023-03-26T16:44:10.559Z,7.90
2023-03-26T16:45:21.854Z,7.80
2023-03-26T16:46:49.763Z,7.80
2023-03-26T16:48:07.444Z,7.80
2023-03-26T16:50:08.181Z,7.80
2023-03-26T16:51:34.183Z,7.80
2023-03-26T16:52:46.367Z,7.70
2023-03-26T16:54:13.040Z,7.70
2023-03-26T16:55:23.229Z,7.70
2023-03-26T16:56:33.495Z,7.70
2023-03-26T16:57:56.139Z,7.70
2023-03-26T16:59:28.083Z,7.70